Карточка аэропорта UATT

Внимание!
Информация на этой странице в стадии наполнения.
Если вы не увидели какой-то информации, или заметили неточность - пожалуйста сообщите нам!
Спасибо!
Команда RU-STAFF
Название аэропортаАктобе
Название аэропорта (англ.)Aktobe
Превышение738 ft. (224.9 m.)
Координаты50°14.748', 57°12.402'
Высота перехода10000ft
Эшелон переходаFL120, QNH<733:FL130
Коды ответчика3440-3447, 3540-3547
Зона ОрВДАктобе РПИ (UATT)
Данные METARUATT 122100Z 23009MPS CAVOK 11/05 Q1010 TEMPO 23014MPS RMK QFE737/0983
Проноз погоды (TAF)UATT 121700Z 1218/1318 23009MPS 9999 BKN033 TX18/1312Z TN09/1301Z BECMG 1220/1222 3100 -SHRA BKN011 BKN030CB TEMPO 1220/1303 -TSRA TEMPO 1306/1315 25014MPS -TSRA BECMG 1315/1317 29005MPS
NOTAMshow/hide NOTAM
AWOS   TABLE

Информация о ВПП

ВПП Длина ВПП (м.) Покрытие Курс ВПП Частота ILS
133202Бетон135111.7
313202Бетон315111.7

Диспетчерские позиции




Спутниковое изображение